createdAt,value
2018-03-25T00:01:34.711Z,20.03
2018-03-25T00:04:02.334Z,19.33
2018-03-25T00:06:29.908Z,18.67
2018-03-25T00:08:57.484Z,19.47
2018-03-25T00:11:25.115Z,20.17
2018-03-25T00:13:52.677Z,22.40
2018-03-25T00:16:20.250Z,22.07
2018-03-25T00:18:47.880Z,21.03
2018-03-25T00:21:15.502Z,21.37
2018-03-25T00:23:43.061Z,21.97
2018-03-25T00:26:10.622Z,23.07
2018-03-25T00:28:38.199Z,26.37
2018-03-25T00:31:05.780Z,25.87
2018-03-25T00:33:33.420Z,26.77
2018-03-25T00:36:00.983Z,29.30
2018-03-25T00:38:28.666Z,31.40
2018-03-25T00:40:56.282Z,28.50
2018-03-25T00:43:23.850Z,29.23
2018-03-25T00:45:51.487Z,28.40
2018-03-25T00:48:19.050Z,28.60
2018-03-25T00:50:46.628Z,24.07
2018-03-25T00:53:14.246Z,24.97
2018-03-25T00:55:41.926Z,25.50
2018-03-25T00:58:09.486Z,24.90
2018-03-25T01:00:37.108Z,23.57
2018-03-25T01:03:04.735Z,23.60
2018-03-25T01:05:32.293Z,23.47
2018-03-25T01:07:59.863Z,24.77
2018-03-25T01:10:27.483Z,26.27
2018-03-25T01:12:55.171Z,23.50
2018-03-25T01:15:22.801Z,22.50
2018-03-25T01:17:50.424Z,21.03
2018-03-25T01:20:17.995Z,23.27
2018-03-25T01:22:45.557Z,22.83
2018-03-25T01:25:13.187Z,21.67
2018-03-25T01:27:40.761Z,23.10
2018-03-25T01:30:08.437Z,21.80
2018-03-25T01:32:36.108Z,24.33
2018-03-25T01:35:03.657Z,24.63
2018-03-25T01:37:31.227Z,26.77
2018-03-25T01:39:58.786Z,24.47
2018-03-25T01:42:26.354Z,28.40
2018-03-25T01:44:53.914Z,26.83
2018-03-25T01:47:21.586Z,23.97
2018-03-25T01:49:49.210Z,23.40
2018-03-25T01:52:16.772Z,25.70
2018-03-25T01:54:44.403Z,26.67
2018-03-25T01:57:12.304Z,27.57
2018-03-25T01:59:39.872Z,27.03
2018-03-25T02:02:07.448Z,24.67
2018-03-25T02:04:35.075Z,25.17
2018-03-25T02:07:02.637Z,25.33
2018-03-25T02:09:30.194Z,23.30
2018-03-25T02:11:57.765Z,24.97
2018-03-25T02:14:25.330Z,24.07
2018-03-25T02:16:52.916Z,25.17
2018-03-25T02:19:20.510Z,24.67
2018-03-25T02:21:48.118Z,26.00
2018-03-25T02:24:15.674Z,23.77
2018-03-25T02:26:43.295Z,24.50
2018-03-25T02:29:10.866Z,24.07
2018-03-25T02:31:38.427Z,25.60
2018-03-25T02:34:06.064Z,25.23
2018-03-25T02:36:33.622Z,26.10
2018-03-25T02:39:01.312Z,28.20
2018-03-25T02:41:28.866Z,30.70
2018-03-25T02:43:56.427Z,32.50
2018-03-25T02:46:24.013Z,36.00
2018-03-25T02:48:51.573Z,33.07
2018-03-25T02:51:19.203Z,32.37
2018-03-25T02:53:46.826Z,33.00
2018-03-25T02:56:14.496Z,32.20
2018-03-25T02:58:42.125Z,32.30
2018-03-25T03:01:09.747Z,30.90
2018-03-25T03:03:37.445Z,32.87
2018-03-25T03:06:05.065Z,32.53
2018-03-25T03:08:32.707Z,30.57
2018-03-25T03:11:00.275Z,30.50
2018-03-25T03:13:27.895Z,32.90
2018-03-25T03:15:55.458Z,32.23
2018-03-25T03:18:23.013Z,33.07
2018-03-25T03:20:50.574Z,39.23
2018-03-25T03:23:18.135Z,36.20
2018-03-25T03:25:45.723Z,32.87
2018-03-25T03:28:13.346Z,29.53
2018-03-25T03:30:40.963Z,29.17
2018-03-25T03:33:08.526Z,30.80
2018-03-25T03:35:36.147Z,29.40
2018-03-25T03:38:03.789Z,30.03
2018-03-25T03:40:31.349Z,27.67
2018-03-25T03:42:58.914Z,29.77
2018-03-25T03:45:26.475Z,28.53
2018-03-25T03:47:54.085Z,29.67
2018-03-25T03:50:21.646Z,26.63
2018-03-25T03:52:49.211Z,28.93
2018-03-25T03:55:16.842Z,27.87
2018-03-25T03:57:44.406Z,30.10
2018-03-25T04:00:11.978Z,30.03
2018-03-25T04:02:39.538Z,31.30
2018-03-25T04:05:07.154Z,34.00
2018-03-25T04:07:34.715Z,34.23
2018-03-25T04:10:02.278Z,37.70
2018-03-25T04:12:29.921Z,38.07
2018-03-25T04:14:57.550Z,40.23
2018-03-25T04:17:25.122Z,37.00
2018-03-25T04:19:52.719Z,32.87
2018-03-25T04:22:20.392Z,29.83
2018-03-25T04:24:47.965Z,30.97
2018-03-25T04:27:15.522Z,29.13
2018-03-25T04:29:43.104Z,27.80
2018-03-25T04:32:10.675Z,26.60
2018-03-25T04:34:38.303Z,27.30
2018-03-25T04:37:05.936Z,28.30
2018-03-25T04:39:33.562Z,27.97
2018-03-25T04:42:01.123Z,27.53
2018-03-25T04:44:28.742Z,30.50
2018-03-25T04:46:56.324Z,28.20
2018-03-25T04:49:23.947Z,30.00
2018-03-25T04:51:51.628Z,28.40
2018-03-25T04:54:19.191Z,31.70
2018-03-25T04:56:46.757Z,32.40
2018-03-25T04:59:14.322Z,32.57
2018-03-25T05:01:41.877Z,29.73
2018-03-25T05:04:09.497Z,35.10
2018-03-25T05:06:37.099Z,30.03
2018-03-25T05:09:04.743Z,24.33
2018-03-25T05:11:32.309Z,24.23
2018-03-25T05:13:59.870Z,27.27
2018-03-25T05:16:27.482Z,29.93
2018-03-25T05:18:55.038Z,27.73
2018-03-25T05:21:22.674Z,30.07
2018-03-25T05:23:50.243Z,26.90
2018-03-25T05:26:17.868Z,26.00
2018-03-25T05:28:45.442Z,25.73
2018-03-25T05:31:13.013Z,25.17
2018-03-25T05:33:40.709Z,23.70
2018-03-25T05:36:08.330Z,25.47
2018-03-25T05:38:35.893Z,23.63
2018-03-25T05:41:03.465Z,17.90
2018-03-25T05:43:31.027Z,18.23
2018-03-25T05:45:58.710Z,23.10
2018-03-25T05:48:26.271Z,25.27
2018-03-25T05:50:53.833Z,23.70
2018-03-25T05:53:21.471Z,23.47
2018-03-25T05:55:49.030Z,24.60
2018-03-25T05:58:16.707Z,25.60
2018-03-25T06:00:44.266Z,23.00
2018-03-25T06:03:11.826Z,22.80
2018-03-25T06:05:39.394Z,19.53
2018-03-25T06:08:06.965Z,20.80
2018-03-25T06:10:34.534Z,20.13
2018-03-25T06:13:02.155Z,28.27
2018-03-25T06:15:29.844Z,34.97
2018-03-25T06:17:57.407Z,27.13
2018-03-25T06:20:24.967Z,20.90
2018-03-25T06:22:52.533Z,20.90
2018-03-25T06:25:20.102Z,24.67
2018-03-25T06:27:47.735Z,21.47
2018-03-25T06:30:15.303Z,21.30
2018-03-25T06:32:42.875Z,26.40
2018-03-25T06:35:10.435Z,22.03
2018-03-25T06:37:38.047Z,22.43
2018-03-25T06:40:05.605Z,22.60
2018-03-25T06:42:33.197Z,22.40
2018-03-25T06:45:00.778Z,21.70
2018-03-25T06:47:28.404Z,21.50
2018-03-25T06:49:55.970Z,21.57
2018-03-25T06:52:23.552Z,22.63
2018-03-25T06:54:51.182Z,19.97
2018-03-25T06:57:18.806Z,20.50
2018-03-25T06:59:46.439Z,20.00
2018-03-25T07:02:14.072Z,21.63
2018-03-25T07:04:41.705Z,20.23
2018-03-25T07:07:09.267Z,22.73
2018-03-25T07:09:36.845Z,19.37
2018-03-25T07:12:04.417Z,28.10
2018-03-25T07:14:32.148Z,21.90
2018-03-25T07:16:59.714Z,19.10
2018-03-25T07:19:27.286Z,20.97
2018-03-25T07:21:54.864Z,30.90
2018-03-25T07:24:22.426Z,22.83
2018-03-25T07:26:50.119Z,20.60
2018-03-25T07:29:17.679Z,21.60
2018-03-25T07:31:45.242Z,22.90
2018-03-25T07:34:12.830Z,21.13
2018-03-25T07:36:40.459Z,20.70
2018-03-25T07:39:08.114Z,21.80
2018-03-25T07:41:35.736Z,21.77
2018-03-25T07:44:03.393Z,20.83
2018-03-25T07:46:31.020Z,20.77
2018-03-25T07:48:58.655Z,20.37
2018-03-25T07:51:26.261Z,19.33
2018-03-25T07:53:53.829Z,18.87
2018-03-25T07:56:21.403Z,18.00
2018-03-25T07:58:48.969Z,12.87
2018-03-25T08:01:16.548Z,16.30
2018-03-25T08:03:44.114Z,18.43
2018-03-25T08:06:11.750Z,17.97
2018-03-25T08:08:39.338Z,17.70
2018-03-25T08:11:06.898Z,18.77
2018-03-25T08:13:34.476Z,18.20
2018-03-25T08:16:02.065Z,16.03
2018-03-25T08:18:29.654Z,16.60
2018-03-25T08:20:57.236Z,17.27
2018-03-25T08:23:24.858Z,16.00
2018-03-25T08:25:52.426Z,17.33
2018-03-25T08:28:20.066Z,17.77
2018-03-25T08:30:47.639Z,18.30
2018-03-25T08:33:15.211Z,17.87
2018-03-25T08:35:42.786Z,18.03
2018-03-25T08:38:10.354Z,17.60
2018-03-25T08:40:37.973Z,19.40
2018-03-25T08:43:05.599Z,20.00
2018-03-25T08:45:33.166Z,18.23
2018-03-25T08:48:00.814Z,19.17
2018-03-25T08:50:28.439Z,16.83
2018-03-25T08:52:56.074Z,18.13
2018-03-25T08:55:23.648Z,17.70
2018-03-25T08:57:51.310Z,17.20
2018-03-25T09:00:18.975Z,16.90
2018-03-25T09:02:46.610Z,17.80
2018-03-25T09:05:14.250Z,22.50
2018-03-25T09:07:41.875Z,19.90
2018-03-25T09:10:09.511Z,22.47
2018-03-25T09:12:37.090Z,17.60
2018-03-25T09:15:04.729Z,20.37
2018-03-25T09:17:32.303Z,18.97
2018-03-25T09:19:59.879Z,17.83
2018-03-25T09:22:27.454Z,19.45
2018-03-25T09:24:55.083Z,16.03
2018-03-25T09:27:22.750Z,16.75
2018-03-25T09:29:50.377Z,17.67
2018-03-25T09:32:17.946Z,21.63
2018-03-25T09:34:45.586Z,19.80
2018-03-25T09:37:13.245Z,18.40
2018-03-25T09:39:40.888Z,15.30
2018-03-25T09:42:08.456Z,17.37
2018-03-25T09:44:36.112Z,17.92
2018-03-25T09:47:03.693Z,17.73
2018-03-25T09:49:31.274Z,16.30
2018-03-25T09:51:58.932Z,15.57
2018-03-25T09:54:26.517Z,15.40
2018-03-25T09:56:54.117Z,13.80
2018-03-25T09:59:21.676Z,15.90
2018-03-25T10:01:54.879Z,17.73
2018-03-25T10:04:22.463Z,15.03
2018-03-25T10:06:50.041Z,16.17
2018-03-25T10:09:17.690Z,15.07
2018-03-25T10:11:45.262Z,14.40
2018-03-25T10:14:12.858Z,17.07
2018-03-25T10:26:24.598Z,15.87
2018-03-25T10:32:26.043Z,24.35
2018-03-25T10:34:53.723Z,18.77
2018-03-25T10:37:21.336Z,16.80
2018-03-25T10:39:48.909Z,17.60
2018-03-25T10:42:16.504Z,17.60
2018-03-25T10:44:44.138Z,16.37
2018-03-25T10:47:11.731Z,16.00
2018-03-25T10:53:15.247Z,22.65
2018-03-25T10:56:42.920Z,20.48
2018-03-25T10:59:10.582Z,18.97
2018-03-25T11:01:38.154Z,17.37
2018-03-25T11:04:05.857Z,19.50
2018-03-25T11:06:33.605Z,20.37
2018-03-25T11:09:01.239Z,20.17
2018-03-25T11:11:28.824Z,17.00
2018-03-25T11:13:56.395Z,18.90
2018-03-25T11:16:23.970Z,20.35
2018-03-25T11:18:51.556Z,19.37
2018-03-25T11:21:19.259Z,18.97
2018-03-25T11:23:46.872Z,20.20
2018-03-25T11:26:15.263Z,20.73
2018-03-25T11:28:42.861Z,18.43
2018-03-25T11:31:10.495Z,20.90
2018-03-25T11:33:38.068Z,17.40
2018-03-25T11:36:05.629Z,17.73
2018-03-25T11:38:33.875Z,19.60
2018-03-25T11:41:01.501Z,19.73
2018-03-25T11:43:29.065Z,16.60
2018-03-25T11:45:56.656Z,17.80
2018-03-25T11:48:24.227Z,16.97
2018-03-25T11:50:51.857Z,18.33
2018-03-25T11:53:19.437Z,19.70
2018-03-25T11:55:47.058Z,16.70
2018-03-25T11:58:14.678Z,17.70
2018-03-25T12:00:42.240Z,16.77
2018-03-25T12:03:09.806Z,17.23
2018-03-25T12:05:37.366Z,18.97
2018-03-25T12:08:05.008Z,16.83
2018-03-25T12:10:32.578Z,20.00
2018-03-25T12:13:00.183Z,17.57
2018-03-25T12:15:27.759Z,17.37
2018-03-25T12:17:55.388Z,18.50
2018-03-25T12:20:22.953Z,17.47
2018-03-25T12:22:50.586Z,17.90
2018-03-25T12:25:18.165Z,18.93
2018-03-25T12:27:45.741Z,23.50
2018-03-25T12:30:13.378Z,23.10
2018-03-25T12:32:41.714Z,20.90
2018-03-25T12:35:09.287Z,26.80
2018-03-25T12:37:36.919Z,26.27
2018-03-25T12:40:04.608Z,24.40
2018-03-25T12:42:33.818Z,20.00
2018-03-25T12:45:01.407Z,19.30
2018-03-25T12:47:28.981Z,17.73
2018-03-25T12:49:56.657Z,16.97
2018-03-25T12:52:24.238Z,20.97
2018-03-25T12:54:52.457Z,24.73
2018-03-25T12:57:20.031Z,21.10
2018-03-25T12:59:47.599Z,16.70
2018-03-25T13:02:15.283Z,24.87
2018-03-25T13:04:43.377Z,16.60
2018-03-25T13:07:10.940Z,35.83
2018-03-25T13:09:38.519Z,86.47
2018-03-25T13:12:06.144Z,25.60
2018-03-25T13:14:33.738Z,54.67
2018-03-25T13:17:01.321Z,31.13
2018-03-25T13:19:28.919Z,19.40
2018-03-25T13:21:57.468Z,24.03
2018-03-25T13:24:25.112Z,22.27
2018-03-25T13:26:52.678Z,23.67
2018-03-25T13:29:20.249Z,28.93
2018-03-25T13:31:47.828Z,23.87
2018-03-25T13:34:15.399Z,26.77
2018-03-25T13:36:43.041Z,38.67
2018-03-25T13:39:10.625Z,32.27
2018-03-25T13:41:38.250Z,30.43
2018-03-25T13:44:05.884Z,20.30
2018-03-25T13:46:33.583Z,24.63
2018-03-25T13:49:01.160Z,88.93
2018-03-25T13:51:28.747Z,41.17
2018-03-25T13:53:56.413Z,32.27
2018-03-25T13:56:23.978Z,27.30
2018-03-25T13:58:51.633Z,31.30
2018-03-25T14:01:19.203Z,29.07
2018-03-25T14:03:46.781Z,43.60
2018-03-25T14:06:14.399Z,34.13
2018-03-25T14:08:42.039Z,54.70
2018-03-25T14:11:10.763Z,33.57
2018-03-25T14:13:38.330Z,35.37
2018-03-25T14:16:05.906Z,34.80
2018-03-25T14:18:33.542Z,33.37
2018-03-25T14:21:01.109Z,31.60
2018-03-25T14:23:28.671Z,31.03
2018-03-25T14:25:56.243Z,34.13
2018-03-25T14:28:23.872Z,32.77
2018-03-25T14:30:51.560Z,33.00
2018-03-25T14:33:19.191Z,33.80
2018-03-25T14:35:46.767Z,30.53
2018-03-25T14:38:14.583Z,36.40
2018-03-25T14:40:42.155Z,34.97
2018-03-25T14:43:09.787Z,39.27
2018-03-25T14:45:37.368Z,42.80
2018-03-25T14:48:04.942Z,39.67
2018-03-25T14:50:32.567Z,42.83
2018-03-25T14:53:00.183Z,38.73
2018-03-25T14:55:27.807Z,43.00
2018-03-25T14:57:55.392Z,49.67
2018-03-25T15:00:23.039Z,43.00
2018-03-25T15:02:51.387Z,38.90
2018-03-25T15:05:18.967Z,56.97
2018-03-25T15:07:46.535Z,39.23
2018-03-25T15:10:14.106Z,34.70
2018-03-25T15:12:41.694Z,100.97
2018-03-25T15:15:09.274Z,42.03
2018-03-25T15:17:36.856Z,38.93
2018-03-25T15:20:04.534Z,45.67
2018-03-25T15:22:32.113Z,42.53
2018-03-25T15:24:59.760Z,48.93
2018-03-25T15:27:27.398Z,137.67
2018-03-25T15:29:54.966Z,60.17
2018-03-25T15:32:22.632Z,47.73
2018-03-25T15:34:50.260Z,44.13
2018-03-25T15:37:17.966Z,45.87
2018-03-25T15:39:45.604Z,69.23
2018-03-25T15:42:13.216Z,46.53
2018-03-25T15:44:41.365Z,46.50
2018-03-25T15:47:08.934Z,53.30
2018-03-25T15:49:36.551Z,66.57
2018-03-25T15:52:04.186Z,82.73
2018-03-25T15:54:31.799Z,43.20
2018-03-25T15:56:59.452Z,48.57
2018-03-25T15:59:27.021Z,56.47
2018-03-25T16:01:54.654Z,61.30
2018-03-25T16:04:22.233Z,55.87
2018-03-25T16:06:50.346Z,68.80
2018-03-25T16:09:17.932Z,60.77
2018-03-25T16:11:45.507Z,58.67
2018-03-25T16:14:13.080Z,64.97
2018-03-25T16:16:40.770Z,65.20
2018-03-25T16:19:08.353Z,61.23
2018-03-25T16:21:35.924Z,60.57
2018-03-25T16:24:03.503Z,62.17
2018-03-25T16:26:31.140Z,59.97
2018-03-25T16:28:58.772Z,54.37
2018-03-25T16:31:26.343Z,70.73
2018-03-25T16:33:53.941Z,64.17
2018-03-25T16:36:21.574Z,67.17
2018-03-25T16:38:49.242Z,64.40
2018-03-25T16:41:16.878Z,58.47
2018-03-25T16:43:44.462Z,68.80
2018-03-25T16:46:12.109Z,77.40
2018-03-25T16:48:39.703Z,61.83
2018-03-25T16:51:07.446Z,64.40
2018-03-25T16:53:35.252Z,69.70
2018-03-25T16:56:02.827Z,70.87
2018-03-25T16:58:30.492Z,61.87
2018-03-25T17:00:58.125Z,64.40
2018-03-25T17:03:25.709Z,59.23
2018-03-25T17:05:53.339Z,55.67
2018-03-25T17:08:20.931Z,59.27
2018-03-25T17:10:48.504Z,55.63
2018-03-25T17:13:16.145Z,56.30
2018-03-25T17:15:43.717Z,68.27
2018-03-25T17:18:11.335Z,61.00
2018-03-25T17:20:38.968Z,63.80
2018-03-25T17:23:06.615Z,66.47
2018-03-25T17:25:34.246Z,64.30
2018-03-25T17:28:01.816Z,71.80
2018-03-25T17:30:29.400Z,80.93
2018-03-25T17:32:56.971Z,87.97
2018-03-25T17:35:24.655Z,75.90
2018-03-25T17:37:52.241Z,65.67
2018-03-25T17:40:19.816Z,74.50
2018-03-25T17:42:47.452Z,78.33
2018-03-25T17:45:15.018Z,91.73
2018-03-25T17:47:42.601Z,83.53
2018-03-25T17:50:10.239Z,94.63
2018-03-25T17:52:37.852Z,74.30
2018-03-25T17:55:05.488Z,76.93
2018-03-25T17:57:33.068Z,108.03
2018-03-25T18:00:00.646Z,77.17
2018-03-25T18:02:28.220Z,79.07
2018-03-25T18:04:55.808Z,76.87
2018-03-25T18:07:23.369Z,80.37
2018-03-25T18:09:51.008Z,79.17
2018-03-25T18:12:18.583Z,79.53
2018-03-25T18:14:46.271Z,73.63
2018-03-25T18:17:33.465Z,69.90
2018-03-25T18:19:41.542Z,61.97
2018-03-25T18:22:09.127Z,66.07
2018-03-25T18:24:37.402Z,62.17
2018-03-25T18:27:05.035Z,62.33
2018-03-25T18:29:32.615Z,61.40
2018-03-25T18:32:00.235Z,67.07
2018-03-25T18:34:27.863Z,69.07
2018-03-25T18:36:55.435Z,76.43
2018-03-25T18:39:23.083Z,73.60
2018-03-25T18:41:50.712Z,70.87
2018-03-25T18:44:18.291Z,69.90
2018-03-25T18:46:45.880Z,74.03
2018-03-25T18:49:13.487Z,69.27
2018-03-25T18:51:41.090Z,74.73
2018-03-25T18:54:09.320Z,83.80
2018-03-25T18:56:36.951Z,78.77
2018-03-25T18:59:04.530Z,71.50
2018-03-25T19:01:32.131Z,77.17
2018-03-25T19:03:59.700Z,74.07
2018-03-25T19:06:27.304Z,68.50
2018-03-25T19:08:54.878Z,69.77
2018-03-25T19:11:22.520Z,64.83
2018-03-25T19:13:50.106Z,61.60
2018-03-25T19:16:17.812Z,61.97
2018-03-25T19:18:45.439Z,64.87
2018-03-25T19:21:13.075Z,65.57
2018-03-25T19:23:40.654Z,70.17
2018-03-25T19:26:08.284Z,63.63
2018-03-25T19:28:35.872Z,63.30
2018-03-25T19:31:03.523Z,69.47
2018-03-25T19:33:31.171Z,67.77
2018-03-25T19:35:58.824Z,65.93
2018-03-25T19:38:26.446Z,63.57
2018-03-25T19:40:54.017Z,60.13
2018-03-25T19:43:21.660Z,62.80
2018-03-25T19:45:49.253Z,58.53
2018-03-25T19:48:16.816Z,61.00
2018-03-25T19:50:44.416Z,59.70
2018-03-25T19:53:12.057Z,58.57
2018-03-25T19:55:39.714Z,61.37
2018-03-25T19:58:07.281Z,62.03
2018-03-25T20:00:34.902Z,55.13
2018-03-25T20:03:02.506Z,51.07
2018-03-25T20:05:30.135Z,48.03
2018-03-25T20:07:57.842Z,46.37
2018-03-25T20:10:25.441Z,50.63
2018-03-25T20:12:53.031Z,47.37
2018-03-25T20:15:20.653Z,45.07
2018-03-25T20:17:48.237Z,43.00
2018-03-25T20:20:15.872Z,43.40
2018-03-25T20:22:43.562Z,43.93
2018-03-25T20:25:11.129Z,43.43
2018-03-25T20:27:38.694Z,40.20
2018-03-25T20:30:06.266Z,41.33
2018-03-25T20:32:33.856Z,47.37
2018-03-25T20:35:01.505Z,52.20
2018-03-25T20:37:29.088Z,52.90
2018-03-25T20:39:56.679Z,49.23
2018-03-25T20:42:24.351Z,49.43
2018-03-25T20:44:52.031Z,47.60
2018-03-25T20:47:19.595Z,56.00
2018-03-25T20:49:47.167Z,50.47
2018-03-25T20:52:14.738Z,45.00
2018-03-25T20:54:42.367Z,44.80
2018-03-25T20:57:09.944Z,62.40
2018-03-25T20:59:37.584Z,58.63
2018-03-25T21:02:05.238Z,67.70
2018-03-25T21:04:32.864Z,53.17
2018-03-25T21:07:00.494Z,46.10
2018-03-25T21:09:28.065Z,39.50
2018-03-25T21:11:55.722Z,33.03
2018-03-25T21:14:23.359Z,40.00
2018-03-25T21:16:50.979Z,40.20
2018-03-25T21:19:18.541Z,34.17
2018-03-25T21:21:46.103Z,44.40
2018-03-25T21:24:13.792Z,50.27
2018-03-25T21:26:41.415Z,48.93
2018-03-25T21:29:09.090Z,53.13
2018-03-25T21:31:36.774Z,53.60
2018-03-25T21:34:04.374Z,51.60
2018-03-25T21:36:31.950Z,47.30
2018-03-25T21:38:59.566Z,40.73
2018-03-25T21:41:27.212Z,34.07
2018-03-25T21:43:54.774Z,35.60
2018-03-25T21:46:22.342Z,53.93
2018-03-25T21:48:49.918Z,49.50
2018-03-25T21:51:17.486Z,43.27
2018-03-25T21:53:45.050Z,38.07
2018-03-25T21:56:12.618Z,38.47
2018-03-25T21:58:40.201Z,44.63
2018-03-25T22:01:07.803Z,43.90
2018-03-25T22:03:35.408Z,44.83
2018-03-25T22:06:03.035Z,45.47
2018-03-25T22:08:30.599Z,50.60
2018-03-25T22:10:58.240Z,56.20
2018-03-25T22:13:25.868Z,75.23
2018-03-25T22:15:53.438Z,70.90
2018-03-25T22:21:20.842Z,57.97
2018-03-25T22:23:48.470Z,56.47
2018-03-25T22:26:16.056Z,59.10
2018-03-25T22:28:43.626Z,59.27
2018-03-25T22:31:11.256Z,65.10
2018-03-25T22:33:38.898Z,54.63
2018-03-25T22:36:06.471Z,57.63
2018-03-25T22:38:34.128Z,43.40
2018-03-25T22:41:01.699Z,34.50
2018-03-25T22:43:29.278Z,27.73
2018-03-25T22:45:56.903Z,23.73
2018-03-25T22:48:24.466Z,25.77
2018-03-25T22:50:52.112Z,25.87
2018-03-25T22:53:19.731Z,26.03
2018-03-25T22:55:47.299Z,27.40
2018-03-25T22:58:14.938Z,26.40
2018-03-25T23:00:42.566Z,22.20
2018-03-25T23:03:10.137Z,25.40
2018-03-25T23:05:37.702Z,24.80
2018-03-25T23:08:05.335Z,19.40
2018-03-25T23:10:32.973Z,16.53
2018-03-25T23:13:00.643Z,18.00
2018-03-25T23:15:28.210Z,16.50
2018-03-25T23:17:55.771Z,21.70
2018-03-25T23:20:23.347Z,22.23
2018-03-25T23:22:50.924Z,21.30
2018-03-25T23:25:18.558Z,22.50
2018-03-25T23:27:46.183Z,26.30
2018-03-25T23:30:13.810Z,24.37
2018-03-25T23:32:41.386Z,23.33
2018-03-25T23:35:09.762Z,25.30
2018-03-25T23:37:37.334Z,26.63
2018-03-25T23:40:04.897Z,26.83
2018-03-25T23:42:32.467Z,26.90
2018-03-25T23:45:00.088Z,27.00
2018-03-25T23:47:27.646Z,28.33
2018-03-25T23:49:55.273Z,35.00
2018-03-25T23:52:22.902Z,37.20
2018-03-25T23:54:50.467Z,40.07
2018-03-25T23:57:18.033Z,43.57
2018-03-25T23:59:45.603Z,46.20
